sensor_id;sensor_type;location;lat;lon;timestamp;temperature;humidity
22680;DHT22;11507;44.858;10.374;2022-11-15T00:02:26;6.80;99.90
22680;DHT22;11507;44.858;10.374;2022-11-15T00:05:11;6.70;99.90
22680;DHT22;11507;44.858;10.374;2022-11-15T00:07:57;6.70;99.90
22680;DHT22;11507;44.858;10.374;2022-11-15T00:10:41;6.70;99.90
22680;DHT22;11507;44.858;10.374;2022-11-15T00:13:26;6.60;99.90
22680;DHT22;11507;44.858;10.374;2022-11-15T00:16:11;6.50;99.90
22680;DHT22;11507;44.858;10.374;2022-11-15T00:18:56;6.50;99.90
22680;DHT22;11507;44.858;10.374;2022-11-15T00:21:41;6.50;99.90
22680;DHT22;11507;44.858;10.374;2022-11-15T00:24:26;6.60;99.90
22680;DHT22;11507;44.858;10.374;2022-11-15T00:27:12;6.60;99.90
22680;DHT22;11507;44.858;10.374;2022-11-15T00:29:58;6.60;99.90
22680;DHT22;11507;44.858;10.374;2022-11-15T00:32:42;6.60;99.90
22680;DHT22;11507;44.858;10.374;2022-11-15T00:35:27;6.60;99.90
22680;DHT22;11507;44.858;10.374;2022-11-15T00:38:11;6.50;99.90
22680;DHT22;11507;44.858;10.374;2022-11-15T00:40:57;6.50;99.90
22680;DHT22;11507;44.858;10.374;2022-11-15T00:43:42;6.60;99.90
22680;DHT22;11507;44.858;10.374;2022-11-15T00:46:27;6.60;99.90
22680;DHT22;11507;44.858;10.374;2022-11-15T00:49:12;6.60;99.90
22680;DHT22;11507;44.858;10.374;2022-11-15T00:51:56;6.50;99.90
22680;DHT22;11507;44.858;10.374;2022-11-15T00:54:41;6.40;99.90
22680;DHT22;11507;44.858;10.374;2022-11-15T00:57:25;6.40;99.90
22680;DHT22;11507;44.858;10.374;2022-11-15T01:00:10;6.20;99.90
22680;DHT22;11507;44.858;10.374;2022-11-15T01:02:56;6.10;99.90
22680;DHT22;11507;44.858;10.374;2022-11-15T01:05:43;6.00;99.90
22680;DHT22;11507;44.858;10.374;2022-11-15T01:08:27;5.80;99.90
22680;DHT22;11507;44.858;10.374;2022-11-15T01:11:12;5.80;99.90
22680;DHT22;11507;44.858;10.374;2022-11-15T01:13:58;5.70;99.90
22680;DHT22;11507;44.858;10.374;2022-11-15T01:16:42;5.70;99.90
22680;DHT22;11507;44.858;10.374;2022-11-15T01:19:26;5.70;99.90
22680;DHT22;11507;44.858;10.374;2022-11-15T01:22:10;5.80;99.90
22680;DHT22;11507;44.858;10.374;2022-11-15T01:24:55;5.80;99.90
22680;DHT22;11507;44.858;10.374;2022-11-15T01:27:40;5.80;99.90
22680;DHT22;11507;44.858;10.374;2022-11-15T01:30:25;5.80;99.90
22680;DHT22;11507;44.858;10.374;2022-11-15T01:33:10;5.70;99.90
22680;DHT22;11507;44.858;10.374;2022-11-15T01:35:54;5.70;99.90
22680;DHT22;11507;44.858;10.374;2022-11-15T01:38:39;5.70;99.90
22680;DHT22;11507;44.858;10.374;2022-11-15T01:41:30;5.70;99.90
22680;DHT22;11507;44.858;10.374;2022-11-15T01:47:33;5.70;99.90
22680;DHT22;11507;44.858;10.374;2022-11-15T01:50:29;5.70;99.90
22680;DHT22;11507;44.858;10.374;2022-11-15T01:53:16;5.60;99.90
22680;DHT22;11507;44.858;10.374;2022-11-15T01:56:07;5.50;99.90
22680;DHT22;11507;44.858;10.374;2022-11-15T01:58:53;5.50;99.90
22680;DHT22;11507;44.858;10.374;2022-11-15T02:01:39;5.50;99.90
22680;DHT22;11507;44.858;10.374;2022-11-15T02:04:32;5.50;99.90
22680;DHT22;11507;44.858;10.374;2022-11-15T02:07:19;5.50;99.90
22680;DHT22;11507;44.858;10.374;2022-11-15T02:10:14;5.50;99.90
22680;DHT22;11507;44.858;10.374;2022-11-15T02:12:59;5.60;99.90
22680;DHT22;11507;44.858;10.374;2022-11-15T02:31:48;5.20;99.90
22680;DHT22;11507;44.858;10.374;2022-11-15T02:35:07;5.30;99.90
22680;DHT22;11507;44.858;10.374;2022-11-15T02:41:20;5.30;99.90
22680;DHT22;11507;44.858;10.374;2022-11-15T02:47:02;5.40;99.90
22680;DHT22;11507;44.858;10.374;2022-11-15T02:50:03;5.40;99.90
22680;DHT22;11507;44.858;10.374;2022-11-15T02:52:51;5.50;99.90
22680;DHT22;11507;44.858;10.374;2022-11-15T02:55:43;5.60;99.90
22680;DHT22;11507;44.858;10.374;2022-11-15T02:58:57;5.60;99.90
22680;DHT22;11507;44.858;10.374;2022-11-15T03:16:51;6.10;99.90
22680;DHT22;11507;44.858;10.374;2022-11-15T03:19:54;6.20;99.90
22680;DHT22;11507;44.858;10.374;2022-11-15T03:22:43;6.20;99.90
22680;DHT22;11507;44.858;10.374;2022-11-15T03:25:29;6.20;99.90
22680;DHT22;11507;44.858;10.374;2022-11-15T03:28:17;6.30;99.90
22680;DHT22;11507;44.858;10.374;2022-11-15T03:31:04;6.40;99.90
22680;DHT22;11507;44.858;10.374;2022-11-15T03:34:25;6.40;99.90
22680;DHT22;11507;44.858;10.374;2022-11-15T03:37:14;6.50;99.90
22680;DHT22;11507;44.858;10.374;2022-11-15T03:40:00;6.50;99.90
22680;DHT22;11507;44.858;10.374;2022-11-15T03:45:56;6.60;99.90
22680;DHT22;11507;44.858;10.374;2022-11-15T03:49:27;6.70;99.90
22680;DHT22;11507;44.858;10.374;2022-11-15T03:52:10;6.80;99.90
22680;DHT22;11507;44.858;10.374;2022-11-15T03:54:56;6.80;99.90
22680;DHT22;11507;44.858;10.374;2022-11-15T03:57:40;6.80;99.90
22680;DHT22;11507;44.858;10.374;2022-11-15T04:00:26;6.80;99.90
22680;DHT22;11507;44.858;10.374;2022-11-15T04:03:11;6.90;99.90
22680;DHT22;11507;44.858;10.374;2022-11-15T04:05:55;7.00;99.90
22680;DHT22;11507;44.858;10.374;2022-11-15T04:08:41;7.20;99.90
22680;DHT22;11507;44.858;10.374;2022-11-15T04:11:26;7.40;99.90
22680;DHT22;11507;44.858;10.374;2022-11-15T04:14:12;7.60;99.90
22680;DHT22;11507;44.858;10.374;2022-11-15T04:16:57;7.70;99.90
22680;DHT22;11507;44.858;10.374;2022-11-15T04:19:42;7.80;99.90
22680;DHT22;11507;44.858;10.374;2022-11-15T04:22:45;7.90;99.90
22680;DHT22;11507;44.858;10.374;2022-11-15T04:25:51;8.00;99.90
22680;DHT22;11507;44.858;10.374;2022-11-15T04:28:36;8.00;99.90
22680;DHT22;11507;44.858;10.374;2022-11-15T04:31:43;8.00;99.90
22680;DHT22;11507;44.858;10.374;2022-11-15T04:34:27;8.10;99.90
22680;DHT22;11507;44.858;10.374;2022-11-15T04:37:12;8.20;99.90
22680;DHT22;11507;44.858;10.374;2022-11-15T04:39:56;8.20;99.90
22680;DHT22;11507;44.858;10.374;2022-11-15T04:42:41;8.20;99.90
22680;DHT22;11507;44.858;10.374;2022-11-15T04:45:28;8.10;99.90
22680;DHT22;11507;44.858;10.374;2022-11-15T04:48:13;8.10;99.90
22680;DHT22;11507;44.858;10.374;2022-11-15T04:50:58;8.20;99.90
22680;DHT22;11507;44.858;10.374;2022-11-15T04:53:43;8.20;99.90
22680;DHT22;11507;44.858;10.374;2022-11-15T04:56:27;8.20;99.90
22680;DHT22;11507;44.858;10.374;2022-11-15T04:59:12;8.30;99.90
22680;DHT22;11507;44.858;10.374;2022-11-15T05:01:56;8.20;99.90
22680;DHT22;11507;44.858;10.374;2022-11-15T05:04:41;8.30;99.90
22680;DHT22;11507;44.858;10.374;2022-11-15T05:07:25;8.30;99.90
22680;DHT22;11507;44.858;10.374;2022-11-15T05:10:11;8.40;99.90
22680;DHT22;11507;44.858;10.374;2022-11-15T05:12:55;8.40;99.90
22680;DHT22;11507;44.858;10.374;2022-11-15T05:15:41;8.40;99.90
22680;DHT22;11507;44.858;10.374;2022-11-15T05:18:25;8.50;99.90
22680;DHT22;11507;44.858;10.374;2022-11-15T05:21:13;8.50;99.90
22680;DHT22;11507;44.858;10.374;2022-11-15T05:23:57;8.60;99.90
22680;DHT22;11507;44.858;10.374;2022-11-15T05:26:41;8.60;99.90
22680;DHT22;11507;44.858;10.374;2022-11-15T05:29:25;8.60;99.90
22680;DHT22;11507;44.858;10.374;2022-11-15T05:32:11;8.60;99.90
22680;DHT22;11507;44.858;10.374;2022-11-15T05:34:56;8.60;99.90
22680;DHT22;11507;44.858;10.374;2022-11-15T05:37:41;8.70;99.90
22680;DHT22;11507;44.858;10.374;2022-11-15T05:40:26;8.70;99.90
22680;DHT22;11507;44.858;10.374;2022-11-15T05:43:11;8.70;99.90
22680;DHT22;11507;44.858;10.374;2022-11-15T05:45:56;8.70;99.90
22680;DHT22;11507;44.858;10.374;2022-11-15T05:48:45;8.70;99.90
22680;DHT22;11507;44.858;10.374;2022-11-15T05:51:31;8.70;99.90
22680;DHT22;11507;44.858;10.374;2022-11-15T05:54:16;8.70;99.90
22680;DHT22;11507;44.858;10.374;2022-11-15T05:57:01;8.70;99.90
22680;DHT22;11507;44.858;10.374;2022-11-15T05:59:46;8.70;99.90
22680;DHT22;11507;44.858;10.374;2022-11-15T06:02:31;8.70;99.90
22680;DHT22;11507;44.858;10.374;2022-11-15T06:05:15;8.70;99.90
22680;DHT22;11507;44.858;10.374;2022-11-15T06:08:01;8.70;99.90
22680;DHT22;11507;44.858;10.374;2022-11-15T06:10:47;8.70;99.90
22680;DHT22;11507;44.858;10.374;2022-11-15T06:13:32;8.70;99.90
22680;DHT22;11507;44.858;10.374;2022-11-15T06:16:17;8.60;99.90
22680;DHT22;11507;44.858;10.374;2022-11-15T06:19:03;8.60;99.90
22680;DHT22;11507;44.858;10.374;2022-11-15T06:21:50;8.60;99.90
22680;DHT22;11507;44.858;10.374;2022-11-15T06:24:36;8.60;99.90
22680;DHT22;11507;44.858;10.374;2022-11-15T06:27:20;8.50;99.90
22680;DHT22;11507;44.858;10.374;2022-11-15T06:30:10;8.50;99.90
22680;DHT22;11507;44.858;10.374;2022-11-15T06:33:05;8.50;99.90
22680;DHT22;11507;44.858;10.374;2022-11-15T06:35:51;8.60;99.90
22680;DHT22;11507;44.858;10.374;2022-11-15T06:38:36;8.60;99.90
22680;DHT22;11507;44.858;10.374;2022-11-15T06:41:21;8.60;99.90
22680;DHT22;11507;44.858;10.374;2022-11-15T06:44:07;8.60;99.90
22680;DHT22;11507;44.858;10.374;2022-11-15T06:46:52;8.60;99.90
22680;DHT22;11507;44.858;10.374;2022-11-15T06:49:36;8.60;99.90
22680;DHT22;11507;44.858;10.374;2022-11-15T06:52:21;8.60;99.90
22680;DHT22;11507;44.858;10.374;2022-11-15T06:55:07;8.60;99.90
22680;DHT22;11507;44.858;10.374;2022-11-15T06:57:52;8.70;99.90
22680;DHT22;11507;44.858;10.374;2022-11-15T07:00:37;8.70;99.90
22680;DHT22;11507;44.858;10.374;2022-11-15T07:03:21;8.70;99.90
22680;DHT22;11507;44.858;10.374;2022-11-15T07:06:08;8.70;99.90
22680;DHT22;11507;44.858;10.374;2022-11-15T07:08:52;8.70;99.90
22680;DHT22;11507;44.858;10.374;2022-11-15T07:11:37;8.70;99.90
22680;DHT22;11507;44.858;10.374;2022-11-15T07:14:21;8.80;99.90
22680;DHT22;11507;44.858;10.374;2022-11-15T07:17:06;8.80;99.90
22680;DHT22;11507;44.858;10.374;2022-11-15T07:19:51;8.80;99.90
22680;DHT22;11507;44.858;10.374;2022-11-15T07:22:36;8.80;99.90
22680;DHT22;11507;44.858;10.374;2022-11-15T07:25:21;8.80;99.90
22680;DHT22;11507;44.858;10.374;2022-11-15T07:28:07;8.90;99.90
22680;DHT22;11507;44.858;10.374;2022-11-15T07:30:51;8.90;99.90
22680;DHT22;11507;44.858;10.374;2022-11-15T07:33:36;8.90;99.90
22680;DHT22;11507;44.858;10.374;2022-11-15T07:36:21;8.90;99.90
22680;DHT22;11507;44.858;10.374;2022-11-15T07:39:05;9.00;99.90
22680;DHT22;11507;44.858;10.374;2022-11-15T07:41:50;9.10;99.90
22680;DHT22;11507;44.858;10.374;2022-11-15T07:44:54;9.10;99.90
22680;DHT22;11507;44.858;10.374;2022-11-15T07:47:38;9.10;99.90
22680;DHT22;11507;44.858;10.374;2022-11-15T07:50:24;9.20;99.90
22680;DHT22;11507;44.858;10.374;2022-11-15T07:53:09;9.30;99.90
22680;DHT22;11507;44.858;10.374;2022-11-15T07:55:54;9.40;99.90
22680;DHT22;11507;44.858;10.374;2022-11-15T07:58:39;9.50;99.90
22680;DHT22;11507;44.858;10.374;2022-11-15T08:01:24;9.60;99.90
22680;DHT22;11507;44.858;10.374;2022-11-15T08:04:10;9.60;99.90
22680;DHT22;11507;44.858;10.374;2022-11-15T08:06:55;9.70;99.90
22680;DHT22;11507;44.858;10.374;2022-11-15T08:09:39;9.80;99.90
22680;DHT22;11507;44.858;10.374;2022-11-15T08:12:23;9.80;99.90
22680;DHT22;11507;44.858;10.374;2022-11-15T08:15:08;9.90;99.90
22680;DHT22;11507;44.858;10.374;2022-11-15T08:17:57;9.90;99.90
22680;DHT22;11507;44.858;10.374;2022-11-15T08:20:43;9.90;99.90
22680;DHT22;11507;44.858;10.374;2022-11-15T08:23:28;9.90;99.90
22680;DHT22;11507;44.858;10.374;2022-11-15T08:26:13;10.00;99.90
22680;DHT22;11507;44.858;10.374;2022-11-15T08:28:57;10.00;99.90
22680;DHT22;11507;44.858;10.374;2022-11-15T08:31:42;10.10;99.90
22680;DHT22;11507;44.858;10.374;2022-11-15T08:34:26;10.10;99.90
22680;DHT22;11507;44.858;10.374;2022-11-15T08:37:11;10.20;99.90
22680;DHT22;11507;44.858;10.374;2022-11-15T08:39:56;10.20;99.90
22680;DHT22;11507;44.858;10.374;2022-11-15T08:42:40;10.20;99.90
22680;DHT22;11507;44.858;10.374;2022-11-15T08:45:24;10.20;99.90
22680;DHT22;11507;44.858;10.374;2022-11-15T08:48:09;10.10;99.90
22680;DHT22;11507;44.858;10.374;2022-11-15T08:50:55;10.10;99.90
22680;DHT22;11507;44.858;10.374;2022-11-15T08:53:41;10.10;99.90
22680;DHT22;11507;44.858;10.374;2022-11-15T08:56:26;10.00;99.90
22680;DHT22;11507;44.858;10.374;2022-11-15T08:59:11;10.10;99.90
22680;DHT22;11507;44.858;10.374;2022-11-15T09:01:55;10.10;99.90
22680;DHT22;11507;44.858;10.374;2022-11-15T09:04:43;10.10;99.90
22680;DHT22;11507;44.858;10.374;2022-11-15T09:07:31;10.10;99.90
22680;DHT22;11507;44.858;10.374;2022-11-15T09:10:15;10.20;99.90
22680;DHT22;11507;44.858;10.374;2022-11-15T09:13:00;10.20;99.90
22680;DHT22;11507;44.858;10.374;2022-11-15T09:15:45;10.20;99.90
22680;DHT22;11507;44.858;10.374;2022-11-15T09:18:30;10.30;99.90
22680;DHT22;11507;44.858;10.374;2022-11-15T09:21:14;10.30;99.90
22680;DHT22;11507;44.858;10.374;2022-11-15T09:23:59;10.30;99.90
22680;DHT22;11507;44.858;10.374;2022-11-15T09:26:44;10.40;99.90
22680;DHT22;11507;44.858;10.374;2022-11-15T09:29:29;10.40;99.90
22680;DHT22;11507;44.858;10.374;2022-11-15T09:32:14;10.40;99.90
22680;DHT22;11507;44.858;10.374;2022-11-15T09:35:00;10.40;99.90
22680;DHT22;11507;44.858;10.374;2022-11-15T09:37:44;10.50;99.90
22680;DHT22;11507;44.858;10.374;2022-11-15T09:40:36;10.60;99.90
22680;DHT22;11507;44.858;10.374;2022-11-15T09:49:02;10.50;99.90
22680;DHT22;11507;44.858;10.374;2022-11-15T09:52:00;10.60;99.90
22680;DHT22;11507;44.858;10.374;2022-11-15T09:54:34;10.60;99.90
22680;DHT22;11507;44.858;10.374;2022-11-15T10:00:04;10.70;99.90
22680;DHT22;11507;44.858;10.374;2022-11-15T10:05:18;10.70;99.90
22680;DHT22;11507;44.858;10.374;2022-11-15T10:10:47;10.80;99.90
22680;DHT22;11507;44.858;10.374;2022-11-15T10:13:26;10.70;99.90
22680;DHT22;11507;44.858;10.374;2022-11-15T10:15:57;10.80;99.90
22680;DHT22;11507;44.858;10.374;2022-11-15T10:18:40;10.90;99.90
22680;DHT22;11507;44.858;10.374;2022-11-15T10:21:20;10.90;99.90
22680;DHT22;11507;44.858;10.374;2022-11-15T10:23:46;10.90;99.90
22680;DHT22;11507;44.858;10.374;2022-11-15T10:26:13;10.90;99.90
22680;DHT22;11507;44.858;10.374;2022-11-15T10:28:40;10.90;99.90
22680;DHT22;11507;44.858;10.374;2022-11-15T10:31:25;10.90;99.90
22680;DHT22;11507;44.858;10.374;2022-11-15T10:34:21;10.90;99.90
22680;DHT22;11507;44.858;10.374;2022-11-15T10:36:47;11.00;99.90
22680;DHT22;11507;44.858;10.374;2022-11-15T10:39:20;11.00;99.90
22680;DHT22;11507;44.858;10.374;2022-11-15T10:41:46;11.10;99.90
22680;DHT22;11507;44.858;10.374;2022-11-15T10:46:41;11.20;99.90
22680;DHT22;11507;44.858;10.374;2022-11-15T10:51:53;11.30;99.90
22680;DHT22;11507;44.858;10.374;2022-11-15T10:54:32;11.20;99.90
22680;DHT22;11507;44.858;10.374;2022-11-15T10:57:00;11.30;99.90
22680;DHT22;11507;44.858;10.374;2022-11-15T10:59:32;11.40;99.90
22680;DHT22;11507;44.858;10.374;2022-11-15T11:01:59;11.40;99.90
22680;DHT22;11507;44.858;10.374;2022-11-15T11:04:25;11.50;99.90
22680;DHT22;11507;44.858;10.374;2022-11-15T11:06:57;11.60;99.90
22680;DHT22;11507;44.858;10.374;2022-11-15T11:11:56;11.70;99.90
22680;DHT22;11507;44.858;10.374;2022-11-15T11:14:26;11.60;99.90
22680;DHT22;11507;44.858;10.374;2022-11-15T11:17:02;11.70;99.90
22680;DHT22;11507;44.858;10.374;2022-11-15T11:22:25;11.60;99.90
22680;DHT22;11507;44.858;10.374;2022-11-15T11:25:23;11.50;99.90
22680;DHT22;11507;44.858;10.374;2022-11-15T11:28:33;11.50;99.90
22680;DHT22;11507;44.858;10.374;2022-11-15T11:33:58;11.60;99.90
22680;DHT22;11507;44.858;10.374;2022-11-15T11:41:55;11.50;99.90
22680;DHT22;11507;44.858;10.374;2022-11-15T11:44:58;11.50;99.90
22680;DHT22;11507;44.858;10.374;2022-11-15T11:47:39;11.50;99.90
22680;DHT22;11507;44.858;10.374;2022-11-15T11:50:20;11.60;99.90
22680;DHT22;11507;44.858;10.374;2022-11-15T11:55:51;11.60;99.90
22680;DHT22;11507;44.858;10.374;2022-11-15T11:58:40;11.50;99.90
22680;DHT22;11507;44.858;10.374;2022-11-15T12:01:23;11.40;99.90
22680;DHT22;11507;44.858;10.374;2022-11-15T12:04:18;11.30;99.90
22680;DHT22;11507;44.858;10.374;2022-11-15T12:09:43;11.30;99.90
22680;DHT22;11507;44.858;10.374;2022-11-15T12:12:15;11.20;99.90
22680;DHT22;11507;44.858;10.374;2022-11-15T12:17:30;11.20;99.90
22680;DHT22;11507;44.858;10.374;2022-11-15T12:20:04;11.20;99.90
22680;DHT22;11507;44.858;10.374;2022-11-15T12:22:43;11.20;99.90
22680;DHT22;11507;44.858;10.374;2022-11-15T12:25:18;11.20;99.90
22680;DHT22;11507;44.858;10.374;2022-11-15T12:30:50;11.20;99.90
22680;DHT22;11507;44.858;10.374;2022-11-15T12:41:24;11.10;99.90
22680;DHT22;11507;44.858;10.374;2022-11-15T12:43:50;11.10;99.90
22680;DHT22;11507;44.858;10.374;2022-11-15T12:48:58;11.10;99.90
22680;DHT22;11507;44.858;10.374;2022-11-15T13:02:25;11.20;99.90
22680;DHT22;11507;44.858;10.374;2022-11-15T13:04:54;11.30;99.90
22680;DHT22;11507;44.858;10.374;2022-11-15T13:07:58;11.30;99.90
22680;DHT22;11507;44.858;10.374;2022-11-15T13:13:02;11.30;99.90
22680;DHT22;11507;44.858;10.374;2022-11-15T13:15:34;11.30;99.90
22680;DHT22;11507;44.858;10.374;2022-11-15T13:20:50;11.30;99.90
22680;DHT22;11507;44.858;10.374;2022-11-15T13:23:15;11.20;99.90
22680;DHT22;11507;44.858;10.374;2022-11-15T13:30:58;11.20;99.90
22680;DHT22;11507;44.858;10.374;2022-11-15T13:33:35;11.20;99.90
22680;DHT22;11507;44.858;10.374;2022-11-15T13:36:09;11.20;99.90
22680;DHT22;11507;44.858;10.374;2022-11-15T13:38:40;11.20;99.90
22680;DHT22;11507;44.858;10.374;2022-11-15T13:41:22;11.20;99.90
22680;DHT22;11507;44.858;10.374;2022-11-15T13:43:50;11.30;99.90
22680;DHT22;11507;44.858;10.374;2022-11-15T13:46:29;11.20;99.90
22680;DHT22;11507;44.858;10.374;2022-11-15T13:51:41;11.20;99.90
22680;DHT22;11507;44.858;10.374;2022-11-15T13:54:25;11.30;99.90
22680;DHT22;11507;44.858;10.374;2022-11-15T13:56:55;11.30;99.90
22680;DHT22;11507;44.858;10.374;2022-11-15T14:01:49;11.30;99.90
22680;DHT22;11507;44.858;10.374;2022-11-15T14:04:20;11.20;99.90
22680;DHT22;11507;44.858;10.374;2022-11-15T14:06:50;11.10;99.90
22680;DHT22;11507;44.858;10.374;2022-11-15T14:09:33;11.10;99.90
22680;DHT22;11507;44.858;10.374;2022-11-15T14:12:00;11.10;99.90
22680;DHT22;11507;44.858;10.374;2022-11-15T14:14:28;11.10;99.90
22680;DHT22;11507;44.858;10.374;2022-11-15T14:16:57;11.00;99.90
22680;DHT22;11507;44.858;10.374;2022-11-15T14:24:36;10.90;99.90
22680;DHT22;11507;44.858;10.374;2022-11-15T14:27:25;10.80;99.90
22680;DHT22;11507;44.858;10.374;2022-11-15T14:29:52;10.80;99.90
22680;DHT22;11507;44.858;10.374;2022-11-15T14:32:25;10.80;99.90
22680;DHT22;11507;44.858;10.374;2022-11-15T14:35:01;10.80;99.90
22680;DHT22;11507;44.858;10.374;2022-11-15T14:37:30;10.70;99.90
22680;DHT22;11507;44.858;10.374;2022-11-15T14:40:02;10.70;99.90
22680;DHT22;11507;44.858;10.374;2022-11-15T14:42:29;10.70;99.90
22680;DHT22;11507;44.858;10.374;2022-11-15T14:44:56;10.60;99.90
22680;DHT22;11507;44.858;10.374;2022-11-15T14:47:21;10.60;99.90
22680;DHT22;11507;44.858;10.374;2022-11-15T14:49:47;10.60;99.90
22680;DHT22;11507;44.858;10.374;2022-11-15T14:52:28;10.60;99.90
22680;DHT22;11507;44.858;10.374;2022-11-15T14:54:55;10.60;99.90
22680;DHT22;11507;44.858;10.374;2022-11-15T14:57:22;10.60;99.90
22680;DHT22;11507;44.858;10.374;2022-11-15T14:59:49;10.50;99.90
22680;DHT22;11507;44.858;10.374;2022-11-15T15:02:21;10.60;99.90
22680;DHT22;11507;44.858;10.374;2022-11-15T15:04:48;10.50;99.90
22680;DHT22;11507;44.858;10.374;2022-11-15T15:07:14;10.50;99.90
22680;DHT22;11507;44.858;10.374;2022-11-15T15:09:40;10.50;99.90
22680;DHT22;11507;44.858;10.374;2022-11-15T15:12:17;10.50;99.90
22680;DHT22;11507;44.858;10.374;2022-11-15T15:14:44;10.50;99.90
22680;DHT22;11507;44.858;10.374;2022-11-15T15:17:10;10.50;99.90
22680;DHT22;11507;44.858;10.374;2022-11-15T15:19:36;10.50;99.90
22680;DHT22;11507;44.858;10.374;2022-11-15T15:22:02;10.40;99.90
22680;DHT22;11507;44.858;10.374;2022-11-15T15:24:28;10.40;99.90
22680;DHT22;11507;44.858;10.374;2022-11-15T15:26:53;10.40;99.90
22680;DHT22;11507;44.858;10.374;2022-11-15T15:29:19;10.40;99.90
22680;DHT22;11507;44.858;10.374;2022-11-15T15:31:45;10.40;99.90
22680;DHT22;11507;44.858;10.374;2022-11-15T15:34:11;10.30;99.90
22680;DHT22;11507;44.858;10.374;2022-11-15T15:36:36;10.30;99.90
22680;DHT22;11507;44.858;10.374;2022-11-15T15:39:03;10.30;99.90
22680;DHT22;11507;44.858;10.374;2022-11-15T15:41:29;10.40;99.90
22680;DHT22;11507;44.858;10.374;2022-11-15T15:43:55;10.30;99.90
22680;DHT22;11507;44.858;10.374;2022-11-15T15:46:21;10.30;99.90
22680;DHT22;11507;44.858;10.374;2022-11-15T15:48:47;10.30;99.90
22680;DHT22;11507;44.858;10.374;2022-11-15T15:51:12;10.30;99.90
22680;DHT22;11507;44.858;10.374;2022-11-15T15:53:38;10.30;99.90
22680;DHT22;11507;44.858;10.374;2022-11-15T15:56:04;10.30;99.90
22680;DHT22;11507;44.858;10.374;2022-11-15T15:58:33;10.30;99.90
22680;DHT22;11507;44.858;10.374;2022-11-15T16:00:59;10.30;99.90
22680;DHT22;11507;44.858;10.374;2022-11-15T16:03:25;10.30;99.90
22680;DHT22;11507;44.858;10.374;2022-11-15T16:05:53;10.30;99.90
22680;DHT22;11507;44.858;10.374;2022-11-15T16:08:23;10.30;99.90
22680;DHT22;11507;44.858;10.374;2022-11-15T16:10:50;10.20;99.90
22680;DHT22;11507;44.858;10.374;2022-11-15T16:13:15;10.20;99.90
22680;DHT22;11507;44.858;10.374;2022-11-15T16:15:43;10.20;99.90
22680;DHT22;11507;44.858;10.374;2022-11-15T16:18:16;10.20;99.90
22680;DHT22;11507;44.858;10.374;2022-11-15T16:20:44;10.20;99.90
22680;DHT22;11507;44.858;10.374;2022-11-15T16:23:12;10.20;99.90
22680;DHT22;11507;44.858;10.374;2022-11-15T16:28:26;10.20;99.90
22680;DHT22;11507;44.858;10.374;2022-11-15T16:31:10;10.20;99.90
22680;DHT22;11507;44.858;10.374;2022-11-15T16:33:36;10.20;99.90
22680;DHT22;11507;44.858;10.374;2022-11-15T16:36:02;10.20;99.90
22680;DHT22;11507;44.858;10.374;2022-11-15T16:38:28;10.20;99.90
22680;DHT22;11507;44.858;10.374;2022-11-15T16:40:54;10.20;99.90
22680;DHT22;11507;44.858;10.374;2022-11-15T16:43:20;10.20;99.90
22680;DHT22;11507;44.858;10.374;2022-11-15T16:45:46;10.20;99.90
22680;DHT22;11507;44.858;10.374;2022-11-15T16:48:23;10.20;99.90
22680;DHT22;11507;44.858;10.374;2022-11-15T16:50:54;10.20;99.90
22680;DHT22;11507;44.858;10.374;2022-11-15T16:53:20;10.10;99.90
22680;DHT22;11507;44.858;10.374;2022-11-15T16:55:46;10.10;99.90
22680;DHT22;11507;44.858;10.374;2022-11-15T16:58:12;10.10;99.90
22680;DHT22;11507;44.858;10.374;2022-11-15T17:00:38;10.10;99.90
22680;DHT22;11507;44.858;10.374;2022-11-15T17:03:03;10.10;99.90
22680;DHT22;11507;44.858;10.374;2022-11-15T17:05:29;10.10;99.90
22680;DHT22;11507;44.858;10.374;2022-11-15T17:07:56;10.10;99.90
22680;DHT22;11507;44.858;10.374;2022-11-15T17:10:24;10.10;99.90
22680;DHT22;11507;44.858;10.374;2022-11-15T17:12:51;10.10;99.90
22680;DHT22;11507;44.858;10.374;2022-11-15T17:15:17;10.10;99.90
22680;DHT22;11507;44.858;10.374;2022-11-15T17:17:43;10.10;99.90
22680;DHT22;11507;44.858;10.374;2022-11-15T17:20:15;10.10;99.90
22680;DHT22;11507;44.858;10.374;2022-11-15T17:22:41;10.10;99.90
22680;DHT22;11507;44.858;10.374;2022-11-15T17:25:07;10.10;99.90
22680;DHT22;11507;44.858;10.374;2022-11-15T17:27:33;10.10;99.90
22680;DHT22;11507;44.858;10.374;2022-11-15T17:29:59;10.10;99.90
22680;DHT22;11507;44.858;10.374;2022-11-15T17:32:25;10.00;99.90
22680;DHT22;11507;44.858;10.374;2022-11-15T17:34:50;10.10;99.90
22680;DHT22;11507;44.858;10.374;2022-11-15T17:37:17;10.10;99.90
22680;DHT22;11507;44.858;10.374;2022-11-15T17:39:43;10.10;99.90
22680;DHT22;11507;44.858;10.374;2022-11-15T17:42:08;10.00;99.90
22680;DHT22;11507;44.858;10.374;2022-11-15T17:44:34;10.10;99.90
22680;DHT22;11507;44.858;10.374;2022-11-15T17:47:00;10.00;99.90
22680;DHT22;11507;44.858;10.374;2022-11-15T17:49:26;10.00;99.90
22680;DHT22;11507;44.858;10.374;2022-11-15T17:51:52;10.00;99.90
22680;DHT22;11507;44.858;10.374;2022-11-15T17:54:18;10.00;99.90
22680;DHT22;11507;44.858;10.374;2022-11-15T17:56:43;10.00;99.90
22680;DHT22;11507;44.858;10.374;2022-11-15T17:59:09;10.00;99.90
22680;DHT22;11507;44.858;10.374;2022-11-15T18:01:36;10.00;99.90
22680;DHT22;11507;44.858;10.374;2022-11-15T18:04:06;10.00;99.90
22680;DHT22;11507;44.858;10.374;2022-11-15T18:06:33;10.00;99.90
22680;DHT22;11507;44.858;10.374;2022-11-15T18:09:00;10.00;99.90
22680;DHT22;11507;44.858;10.374;2022-11-15T18:11:32;10.00;99.90
22680;DHT22;11507;44.858;10.374;2022-11-15T18:14:02;10.00;99.90
22680;DHT22;11507;44.858;10.374;2022-11-15T18:16:31;10.00;99.90
22680;DHT22;11507;44.858;10.374;2022-11-15T18:18:57;10.00;99.90
22680;DHT22;11507;44.858;10.374;2022-11-15T18:21:26;10.00;99.90
22680;DHT22;11507;44.858;10.374;2022-11-15T18:24:01;10.00;99.90
22680;DHT22;11507;44.858;10.374;2022-11-15T18:26:29;10.00;99.90
22680;DHT22;11507;44.858;10.374;2022-11-15T18:29:00;10.00;99.90
22680;DHT22;11507;44.858;10.374;2022-11-15T18:31:28;10.00;99.90
22680;DHT22;11507;44.858;10.374;2022-11-15T18:33:56;10.00;99.90
22680;DHT22;11507;44.858;10.374;2022-11-15T18:36:24;10.00;99.90
22680;DHT22;11507;44.858;10.374;2022-11-15T18:38:58;10.00;99.90
22680;DHT22;11507;44.858;10.374;2022-11-15T18:41:27;10.00;99.90
22680;DHT22;11507;44.858;10.374;2022-11-15T18:43:57;10.00;99.90
22680;DHT22;11507;44.858;10.374;2022-11-15T18:46:30;9.90;99.90
22680;DHT22;11507;44.858;10.374;2022-11-15T18:48:58;9.90;99.90
22680;DHT22;11507;44.858;10.374;2022-11-15T18:51:26;9.90;99.90